Deadhorse Airport
PASC : rendu visible

Aérodrome :











RETROUVEZ-NOUS SUR...

 
LOGIN :

S'inscrire | Disclaimer

   EN    FR    IT 

 









Légende :    VFR   VFR Marginal   IFR   IFR Intensif   IFR Très Intensif
Visi : 
Plafond : 
>= 8 km
>= 3000ft
5 à 8 km
1000 à 3000 ft
1500m à 5 km
500 à 1000 ft
800 à 1500m
200 à 500 ft
< 800m
< 200 ft
Symboles :   Orages  Brouillard  Fortes neiges  Fortes précipitations  Vent > 20 kt






- Altitude de l'aérodrome : 65 ft
- Code IATA : SCC


PASC - Deadhorse

DERNIER METAR :
  • 120953Z 10003KT 10SM OVC009 03/01 A2981 RMK AO2 SLP094 T00280011

METARs EXPIRÉS :
  • 120853Z 00000KT 10SM BKN008 BKN090 BKN110 03/01 A2982 RMK AO2 RAB24E52 SLP098 P0000 60000 T00330006 400780006 58005
  • 120753Z 13003KT 10SM SCT008 BKN090 BKN110 03/01 A2982 RMK AO2 SLP100 T00330006

TAF PASC
Valide du 12 à 10h jusqu'au 13 à 06h UTC


121016Z 1210/1306 09003KT 2SM BR VCSH OVC009
FM121800 06005KT 6SM BR VCSH OVC015
FIR PAZA / Amérique du Nord



MET'MAP, la Météo Aéronautique d'un coup d'oeil ! - Copyright ORBIFLY Décembre 2007 - Disclaimer

ORBIFLY MET'MAP TEAM :

Programmation & Développement : Alexandra Zaïnal
Sur une idée originale de : Baudouin d'Aumeries
Assistance à la programmation : Marc-Olivier Méhu
Soutien technique & logistique : Manuel Goepfert

Contact : metmap@orbifly.com




SOURCES & CREDITS :

   NOAA       Earth
Advisory